createdAt,value
2019-04-05T00:02:05.526Z,13.53
2019-04-05T00:04:35.159Z,14.97
2019-04-05T00:07:05.137Z,13.30
2019-04-05T00:09:34.737Z,14.30
2019-04-05T00:12:04.029Z,14.77
2019-04-05T00:14:33.393Z,13.70
2019-04-05T00:17:03.032Z,12.73
2019-04-05T00:19:33.103Z,16.90
2019-04-05T00:22:02.762Z,15.70
2019-04-05T00:24:32.110Z,14.83
2019-04-05T00:27:01.377Z,15.97
2019-04-05T00:29:30.727Z,12.80
2019-04-05T00:32:00.131Z,14.43
2019-04-05T00:34:29.526Z,13.43
2019-04-05T00:36:58.797Z,13.37
2019-04-05T00:39:28.268Z,12.33
2019-04-05T00:41:57.556Z,14.43
2019-04-05T00:44:27.497Z,22.63
2019-04-05T00:46:57.147Z,13.70
2019-04-05T00:49:26.500Z,11.70
2019-04-05T00:51:55.768Z,13.53
2019-04-05T00:54:25.497Z,14.83
2019-04-05T00:56:54.780Z,12.50
2019-04-05T00:59:24.100Z,13.57
2019-04-05T01:01:53.809Z,12.00
2019-04-05T01:04:23.107Z,13.60
2019-04-05T01:06:52.385Z,13.93
2019-04-05T01:09:21.744Z,13.10
2019-04-05T01:11:51.405Z,13.73
2019-04-05T01:14:22.966Z,12.37
2019-04-05T01:16:52.361Z,14.13
2019-04-05T01:19:22.465Z,15.13
2019-04-05T01:21:53.712Z,18.40
2019-04-05T01:24:24.701Z,15.60
2019-04-05T01:26:55.863Z,16.93
2019-04-05T01:29:26.477Z,18.07
2019-04-05T01:31:55.776Z,21.37
2019-04-05T01:34:25.050Z,16.90
2019-04-05T01:36:54.639Z,21.77
2019-04-05T01:39:24.004Z,14.70
2019-04-05T01:41:53.491Z,17.97
2019-04-05T01:44:23.045Z,17.07
2019-04-05T01:46:52.950Z,16.33
2019-04-05T01:49:22.505Z,17.90
2019-04-05T01:51:52.233Z,15.70
2019-04-05T01:54:21.441Z,14.50
2019-04-05T01:56:50.719Z,16.57
2019-04-05T01:59:20.015Z,12.80
2019-04-05T02:01:50.011Z,16.37
2019-04-05T02:04:19.299Z,14.73
2019-04-05T02:06:48.613Z,19.83
2019-04-05T02:09:17.997Z,16.90
2019-04-05T02:11:47.347Z,16.07
2019-04-05T02:14:16.938Z,16.57
2019-04-05T02:16:46.215Z,14.30
2019-04-05T02:19:15.488Z,16.67
2019-04-05T02:21:44.805Z,18.20
2019-04-05T02:24:14.107Z,16.30
2019-04-05T02:26:43.378Z,15.73
2019-04-05T02:29:12.661Z,19.70
2019-04-05T02:31:42.294Z,20.33
2019-04-05T02:34:11.606Z,17.27
2019-04-05T02:36:41.308Z,13.43
2019-04-05T02:39:11.015Z,17.83
2019-04-05T02:41:41.317Z,15.07
2019-04-05T02:44:13.807Z,17.73
2019-04-05T02:46:46.398Z,16.37
2019-04-05T02:49:16.630Z,16.97
2019-04-05T02:51:49.049Z,21.47
2019-04-05T02:54:19.457Z,22.33
2019-04-05T02:56:50.265Z,30.43
2019-04-05T02:59:20.250Z,26.93
2019-04-05T03:01:50.571Z,38.00
2019-04-05T03:04:19.759Z,26.37
2019-04-05T03:06:51.580Z,19.77
2019-04-05T03:09:22.848Z,21.10
2019-04-05T03:11:52.226Z,21.33
2019-04-05T03:14:22.586Z,22.80
2019-04-05T03:16:54.417Z,19.80
2019-04-05T03:19:27.229Z,23.60
2019-04-05T03:22:04.329Z,20.37
2019-04-05T03:24:36.539Z,32.23
2019-04-05T03:27:35.666Z,41.53
2019-04-05T03:30:06.161Z,43.80
2019-04-05T03:32:35.995Z,44.40
2019-04-05T03:35:05.704Z,27.20
2019-04-05T03:37:35.607Z,22.30
2019-04-05T03:40:05.669Z,25.40
2019-04-05T03:42:35.577Z,27.73
2019-04-05T03:45:05.567Z,28.10
2019-04-05T03:47:35.113Z,25.43
2019-04-05T03:50:04.808Z,22.57
2019-04-05T03:52:34.148Z,18.60
2019-04-05T03:55:03.847Z,20.33
2019-04-05T03:57:33.462Z,19.67
2019-04-05T04:00:02.719Z,19.43
2019-04-05T04:02:32.132Z,18.30
2019-04-05T04:05:01.513Z,22.93
2019-04-05T04:07:31.130Z,20.50
2019-04-05T04:10:00.293Z,20.63
2019-04-05T04:12:29.865Z,23.53
2019-04-05T04:15:14.162Z,28.97
2019-04-05T04:17:45.109Z,23.40
2019-04-05T04:20:41.629Z,24.53
2019-04-05T04:23:12.510Z,24.37
2019-04-05T04:25:42.144Z,23.63
2019-04-05T04:28:11.632Z,31.53
2019-04-05T04:30:41.826Z,29.83
2019-04-05T04:33:11.603Z,47.23
2019-04-05T04:35:41.754Z,41.47
2019-04-05T04:38:11.099Z,41.80
2019-04-05T04:40:41.143Z,29.43
2019-04-05T04:43:11.001Z,36.90
2019-04-05T04:45:40.543Z,34.93
2019-04-05T04:48:09.929Z,31.57
2019-04-05T04:50:39.903Z,29.10
2019-04-05T04:53:10.153Z,30.77
2019-04-05T04:55:39.751Z,26.97
2019-04-05T04:58:09.122Z,27.47
2019-04-05T05:00:39.041Z,32.47
2019-04-05T05:03:08.855Z,30.80
2019-04-05T05:05:38.378Z,29.93
2019-04-05T05:08:08.322Z,26.27
2019-04-05T05:10:37.648Z,37.87
2019-04-05T05:13:07.013Z,42.77
2019-04-05T05:15:37.599Z,38.57
2019-04-05T05:18:07.119Z,43.70
2019-04-05T05:20:36.575Z,43.07
2019-04-05T05:23:06.118Z,49.37
2019-04-05T05:25:36.580Z,47.57
2019-04-05T05:28:06.219Z,37.43
2019-04-05T05:30:35.590Z,45.53
2019-04-05T05:33:05.141Z,35.47
2019-04-05T05:35:34.609Z,47.63
2019-04-05T05:38:04.065Z,49.80
2019-04-05T05:40:35.549Z,38.50
2019-04-05T05:43:05.083Z,52.97
2019-04-05T05:45:34.399Z,59.27
2019-04-05T05:48:03.628Z,47.87
2019-04-05T05:50:33.273Z,35.43
2019-04-05T05:53:02.760Z,29.77
2019-04-05T05:55:32.009Z,31.60
2019-04-05T05:58:01.162Z,28.33
2019-04-05T06:00:31.137Z,26.27
2019-04-05T06:03:00.485Z,30.27
2019-04-05T06:05:29.655Z,24.00
2019-04-05T06:08:01.080Z,37.90
2019-04-05T06:10:30.803Z,27.53
2019-04-05T06:13:00.599Z,26.90
2019-04-05T06:15:30.147Z,26.93
2019-04-05T06:18:04.913Z,31.23
2019-04-05T06:20:30.933Z,35.40
2019-04-05T06:23:00.207Z,25.50
2019-04-05T06:25:29.751Z,26.77
2019-04-05T06:27:59.888Z,26.37
2019-04-05T06:30:29.322Z,27.33
2019-04-05T06:32:58.765Z,32.73
2019-04-05T06:35:27.935Z,36.23
2019-04-05T06:37:57.087Z,24.33
2019-04-05T06:40:26.355Z,28.50
2019-04-05T06:42:55.599Z,25.90
2019-04-05T06:45:24.877Z,24.27
2019-04-05T06:47:54.056Z,20.40
2019-04-05T06:50:23.537Z,22.43
2019-04-05T06:52:53.006Z,28.20
2019-04-05T06:55:22.222Z,21.83
2019-04-05T06:57:51.499Z,31.30
2019-04-05T07:00:28.145Z,26.43
2019-04-05T07:02:58.323Z,25.90
2019-04-05T07:05:27.581Z,21.67
2019-04-05T07:07:56.763Z,25.53
2019-04-05T07:10:26.287Z,22.73
2019-04-05T07:12:55.549Z,23.70
2019-04-05T07:15:24.867Z,24.23
2019-04-05T07:17:54.569Z,32.37
2019-04-05T07:20:23.980Z,18.67
2019-04-05T07:22:53.602Z,17.67
2019-04-05T07:25:22.863Z,18.17
2019-04-05T07:27:52.132Z,21.67
2019-04-05T07:30:21.911Z,18.17
2019-04-05T07:32:51.129Z,16.17
2019-04-05T07:35:32.427Z,18.57
2019-04-05T07:37:51.731Z,20.73
2019-04-05T07:40:22.358Z,21.50
2019-04-05T07:42:51.600Z,21.30
2019-04-05T07:45:21.413Z,26.97
2019-04-05T07:47:50.652Z,17.97
2019-04-05T07:50:19.887Z,17.93
2019-04-05T07:52:49.325Z,25.00
2019-04-05T07:55:18.755Z,17.70
2019-04-05T07:57:48.385Z,11.33
2019-04-05T08:00:49.996Z,20.57
2019-04-05T08:03:19.854Z,13.67
2019-04-05T08:05:50.175Z,11.70
2019-04-05T08:08:41.409Z,9.77
2019-04-05T08:11:10.792Z,11.97
2019-04-05T08:13:41.734Z,9.40
2019-04-05T08:16:11.595Z,9.20
2019-04-05T08:18:41.137Z,11.33
2019-04-05T08:21:10.298Z,14.43
2019-04-05T08:23:39.484Z,13.17
2019-04-05T08:26:09.106Z,16.47
2019-04-05T08:28:38.264Z,8.97
2019-04-05T08:31:10.825Z,10.60
2019-04-05T08:33:38.991Z,8.10
2019-04-05T08:36:08.157Z,9.10
2019-04-05T08:38:39.715Z,6.63
2019-04-05T08:41:08.635Z,13.80
2019-04-05T08:43:38.140Z,13.77
2019-04-05T08:46:07.408Z,6.33
2019-04-05T08:48:36.640Z,6.53
2019-04-05T08:51:06.118Z,7.70
2019-04-05T08:53:35.631Z,8.30
2019-04-05T08:56:04.941Z,11.17
2019-04-05T08:58:34.162Z,7.53
2019-04-05T09:01:03.803Z,10.97
2019-04-05T09:03:33.066Z,10.00
2019-04-05T09:06:02.268Z,6.57
2019-04-05T09:08:31.819Z,7.80
2019-04-05T09:11:01.436Z,7.17
2019-04-05T09:13:30.683Z,12.37
2019-04-05T09:15:59.851Z,7.67
2019-04-05T09:18:28.994Z,7.90
2019-04-05T09:20:58.192Z,6.33
2019-04-05T09:23:27.375Z,6.60
2019-04-05T09:25:56.537Z,7.87
2019-04-05T09:28:26.085Z,8.97
2019-04-05T09:30:55.693Z,10.00
2019-04-05T09:33:29.902Z,6.00
2019-04-05T09:35:59.395Z,5.03
2019-04-05T09:38:28.731Z,6.00
2019-04-05T09:40:57.967Z,3.43
2019-04-05T09:43:27.200Z,3.80
2019-04-05T09:45:56.441Z,4.70
2019-04-05T09:48:25.721Z,8.70
2019-04-05T09:50:54.988Z,5.53
2019-04-05T09:53:24.533Z,6.63
2019-04-05T09:55:53.857Z,6.53
2019-04-05T09:58:23.004Z,6.10
2019-04-05T10:00:52.817Z,8.30
2019-04-05T10:03:22.410Z,7.40
2019-04-05T10:05:51.965Z,4.53
2019-04-05T10:08:21.135Z,7.47
2019-04-05T10:10:50.991Z,2.90
2019-04-05T10:13:20.541Z,4.63
2019-04-05T10:15:50.446Z,3.63
2019-04-05T10:18:19.755Z,4.73
2019-04-05T10:20:49.886Z,3.40
2019-04-05T10:23:19.057Z,5.43
2019-04-05T10:25:48.273Z,3.20
2019-04-05T10:28:17.809Z,6.80
2019-04-05T10:30:47.067Z,7.40
2019-04-05T10:33:16.401Z,8.90
2019-04-05T10:35:45.720Z,7.97
2019-04-05T10:38:15.044Z,5.00
2019-04-05T10:40:44.315Z,6.40
2019-04-05T10:43:13.633Z,6.60
2019-04-05T10:45:42.884Z,3.20
2019-04-05T10:48:12.202Z,9.43
2019-04-05T10:50:41.486Z,7.73
2019-04-05T10:53:11.017Z,8.13
2019-04-05T10:55:40.262Z,5.90
2019-04-05T10:58:09.550Z,6.07
2019-04-05T11:00:39.176Z,5.50
2019-04-05T11:03:08.452Z,5.60
2019-04-05T11:05:37.706Z,17.50
2019-04-05T11:08:07.201Z,4.03
2019-04-05T11:10:36.460Z,5.60
2019-04-05T11:13:05.660Z,2.43
2019-04-05T11:15:34.899Z,2.00
2019-04-05T11:18:04.711Z,5.70
2019-04-05T11:20:34.040Z,6.93
2019-04-05T11:23:03.628Z,5.13
2019-04-05T11:25:32.960Z,5.87
2019-04-05T11:28:02.529Z,4.40
2019-04-05T11:30:49.996Z,6.97
2019-04-05T11:33:19.941Z,4.37
2019-04-05T11:35:49.515Z,4.93
2019-04-05T11:38:24.247Z,6.13
2019-04-05T11:40:53.634Z,4.40
2019-04-05T11:43:26.984Z,6.13
2019-04-05T11:45:57.153Z,5.90
2019-04-05T11:48:28.262Z,7.40
2019-04-05T11:50:57.730Z,12.40
2019-04-05T11:53:26.904Z,2.95
2019-04-05T11:55:56.547Z,3.83
2019-04-05T11:58:26.234Z,3.10
2019-04-05T12:00:59.767Z,3.27
2019-04-05T12:03:29.711Z,7.37
2019-04-05T12:05:58.941Z,2.77
2019-04-05T12:08:28.108Z,3.00
2019-04-05T12:10:57.283Z,3.13
2019-04-05T12:13:26.523Z,4.75
2019-04-05T12:15:58.015Z,5.67
2019-04-05T12:18:26.787Z,7.63
2019-04-05T12:21:00.268Z,3.57
2019-04-05T12:23:27.186Z,6.00
2019-04-05T12:25:56.749Z,2.63
2019-04-05T12:28:26.495Z,2.43
2019-04-05T12:30:55.758Z,6.95
2019-04-05T12:33:24.911Z,7.70
2019-04-05T12:35:56.577Z,5.83
2019-04-05T12:38:32.939Z,5.30
2019-04-05T12:41:05.030Z,6.50
2019-04-05T12:43:34.635Z,6.87
2019-04-05T12:46:06.599Z,7.33
2019-04-05T12:48:35.830Z,4.13
2019-04-05T12:51:05.947Z,3.17
2019-04-05T12:53:35.326Z,8.63
2019-04-05T12:56:05.720Z,5.37
2019-04-05T12:58:35.041Z,5.43
2019-04-05T13:01:04.552Z,4.10
2019-04-05T13:03:33.918Z,6.17
2019-04-05T13:06:03.624Z,9.43
2019-04-05T13:08:32.818Z,9.20
2019-04-05T13:11:02.062Z,7.63
2019-04-05T13:13:31.534Z,5.47
2019-04-05T13:16:01.155Z,8.77
2019-04-05T13:18:31.718Z,7.97
2019-04-05T13:21:14.000Z,9.07
2019-04-05T13:23:33.774Z,4.93
2019-04-05T13:26:03.991Z,4.13
2019-04-05T13:28:33.746Z,5.20
2019-04-05T13:31:03.808Z,7.20
2019-04-05T13:33:33.031Z,4.73
2019-04-05T13:36:02.391Z,6.43
2019-04-05T13:38:31.700Z,5.67
2019-04-05T13:41:01.526Z,5.97
2019-04-05T13:43:31.979Z,4.30
2019-04-05T13:46:02.432Z,4.47
2019-04-05T13:48:31.750Z,5.40
2019-04-05T13:51:01.108Z,6.73
2019-04-05T13:53:30.368Z,9.33
2019-04-05T13:55:59.949Z,6.83
2019-04-05T13:58:29.194Z,5.80
2019-04-05T14:00:58.476Z,5.53
2019-04-05T14:03:27.726Z,8.60
2019-04-05T14:05:56.910Z,9.60
2019-04-05T14:08:26.289Z,5.40
2019-04-05T14:10:55.902Z,3.40
2019-04-05T14:13:25.198Z,8.70
2019-04-05T14:15:55.110Z,4.67
2019-04-05T14:18:25.111Z,13.93
2019-04-05T14:20:54.714Z,8.47
2019-04-05T14:23:24.220Z,5.47
2019-04-05T14:25:53.540Z,7.47
2019-04-05T14:28:23.425Z,6.27
2019-04-05T14:30:52.800Z,13.57
2019-04-05T14:33:24.508Z,8.00
2019-04-05T14:35:54.744Z,6.27
2019-04-05T14:38:24.298Z,5.53
2019-04-05T14:40:53.947Z,8.37
2019-04-05T14:43:23.176Z,4.70
2019-04-05T14:45:52.330Z,6.77
2019-04-05T14:48:21.504Z,13.27
2019-04-05T14:50:50.760Z,10.57
2019-04-05T14:53:20.298Z,8.87
2019-04-05T14:55:49.479Z,6.93
2019-04-05T14:58:19.357Z,7.97
2019-04-05T15:00:48.778Z,6.50
2019-04-05T15:03:18.421Z,6.93
2019-04-05T15:05:48.418Z,7.43
2019-04-05T15:08:20.383Z,5.63
2019-04-05T15:10:51.236Z,6.23
2019-04-05T15:13:19.651Z,6.50
2019-04-05T15:15:48.970Z,6.20
2019-04-05T15:18:19.778Z,5.70
2019-04-05T15:20:49.642Z,8.87
2019-04-05T15:23:19.158Z,6.23
2019-04-05T15:25:49.897Z,7.73
2019-04-05T15:28:19.594Z,7.23
2019-04-05T15:30:49.694Z,7.10
2019-04-05T15:33:19.140Z,6.40
2019-04-05T15:35:48.342Z,8.33
2019-04-05T15:38:17.709Z,7.27
2019-04-05T15:40:47.078Z,6.50
2019-04-05T15:43:16.675Z,6.37
2019-04-05T15:45:46.227Z,7.50
2019-04-05T15:48:15.396Z,6.40
2019-04-05T15:50:44.630Z,9.03
2019-04-05T15:53:13.877Z,8.80
2019-04-05T15:55:43.092Z,9.40
2019-04-05T15:58:13.030Z,6.87
2019-04-05T16:00:44.046Z,7.77
2019-04-05T16:03:14.562Z,7.90
2019-04-05T16:05:45.612Z,5.90
2019-04-05T16:08:18.068Z,8.43
2019-04-05T16:10:47.917Z,6.67
2019-04-05T16:13:17.522Z,7.57
2019-04-05T16:15:46.798Z,7.70
2019-04-05T16:18:18.952Z,7.10
2019-04-05T16:20:49.136Z,10.07
2019-04-05T16:23:18.850Z,7.43
2019-04-05T16:25:48.434Z,8.07
2019-04-05T16:28:17.626Z,6.80
2019-04-05T16:30:46.828Z,8.93
2019-04-05T16:33:16.394Z,11.60
2019-04-05T16:35:45.735Z,15.00
2019-04-05T16:38:15.543Z,10.23
2019-04-05T16:40:45.837Z,8.67
2019-04-05T16:43:15.097Z,13.23
2019-04-05T16:45:44.672Z,10.93
2019-04-05T16:48:14.510Z,9.10
2019-04-05T16:51:22.734Z,10.40
2019-04-05T16:54:01.761Z,14.50
2019-04-05T16:56:32.140Z,11.70
2019-04-05T16:59:01.454Z,13.00
2019-04-05T17:01:30.738Z,13.63
2019-04-05T17:04:00.874Z,13.97
2019-04-05T17:06:30.137Z,13.17
2019-04-05T17:08:59.671Z,14.97
2019-04-05T17:11:29.575Z,15.50
2019-04-05T17:13:59.621Z,18.10
2019-04-05T17:16:29.016Z,18.50
2019-04-05T17:18:58.450Z,15.60
2019-04-05T17:21:28.176Z,16.07
2019-04-05T17:23:57.510Z,15.83
2019-04-05T17:26:26.733Z,18.00
2019-04-05T17:28:55.935Z,16.47
2019-04-05T17:31:25.284Z,22.83
2019-04-05T17:33:54.789Z,19.77
2019-04-05T17:36:24.306Z,19.90
2019-04-05T17:38:53.877Z,19.97
2019-04-05T17:41:23.138Z,23.33
2019-04-05T17:43:52.353Z,23.40
2019-04-05T17:46:21.598Z,25.73
2019-04-05T17:48:51.845Z,24.73
2019-04-05T17:51:21.336Z,22.00
2019-04-05T17:53:50.747Z,26.33
2019-04-05T17:56:20.771Z,28.90
2019-04-05T17:58:51.227Z,26.50
2019-04-05T18:01:20.935Z,27.93
2019-04-05T18:03:50.528Z,24.50
2019-04-05T18:06:19.761Z,25.90
2019-04-05T18:08:49.154Z,24.93
2019-04-05T18:11:18.392Z,25.50
2019-04-05T18:13:47.961Z,25.57
2019-04-05T18:16:17.127Z,26.60
2019-04-05T18:18:46.386Z,27.40
2019-04-05T18:21:16.053Z,33.57
2019-04-05T18:23:46.102Z,28.70
2019-04-05T18:26:15.406Z,27.23
2019-04-05T18:28:44.940Z,30.20
2019-04-05T18:31:14.208Z,34.13
2019-04-05T18:33:43.704Z,28.10
2019-04-05T18:36:13.313Z,30.10
2019-04-05T18:38:42.544Z,28.93
2019-04-05T18:41:12.118Z,31.37
2019-04-05T18:43:41.316Z,32.93
2019-04-05T18:46:10.683Z,29.33
2019-04-05T18:48:40.500Z,29.63
2019-04-05T18:51:10.332Z,30.27
2019-04-05T18:53:40.213Z,32.87
2019-04-05T18:56:09.508Z,32.63
2019-04-05T18:58:39.200Z,30.33
2019-04-05T19:01:08.476Z,31.53
2019-04-05T19:03:37.968Z,35.90
2019-04-05T19:06:07.188Z,36.07
2019-04-05T19:08:40.001Z,32.23
2019-04-05T19:11:07.547Z,32.77
2019-04-05T19:13:36.738Z,37.70
2019-04-05T19:16:06.314Z,31.97
2019-04-05T19:18:35.780Z,33.30
2019-04-05T19:21:05.321Z,33.47
2019-04-05T19:23:34.795Z,26.47
2019-04-05T19:26:03.977Z,27.33
2019-04-05T19:28:33.262Z,26.97
2019-04-05T19:48:39.704Z,21.57
2019-04-05T19:51:08.998Z,22.13
2019-04-05T19:53:38.172Z,23.47
2019-04-05T19:56:07.340Z,28.03
2019-04-05T19:58:36.637Z,25.17
2019-04-05T20:01:06.271Z,24.50
2019-04-05T20:03:35.576Z,21.60
2019-04-05T20:06:04.844Z,22.53
2019-04-05T20:08:34.068Z,22.40
2019-04-05T20:11:03.816Z,22.33
2019-04-05T20:13:33.106Z,26.00
2019-04-05T20:16:02.288Z,24.13
2019-04-05T20:18:31.756Z,27.77
2019-04-05T20:21:00.964Z,24.07
2019-04-05T20:23:30.178Z,23.60
2019-04-05T20:25:59.420Z,23.07
2019-04-05T20:28:29.070Z,25.27
2019-04-05T20:30:58.370Z,25.27
2019-04-05T20:33:27.620Z,23.50
2019-04-05T20:35:57.177Z,25.47
2019-04-05T20:38:26.755Z,25.93
2019-04-05T20:40:56.012Z,25.70
2019-04-05T20:43:25.266Z,23.30
2019-04-05T20:45:54.792Z,25.60
2019-04-05T20:48:24.060Z,26.00
2019-04-05T20:50:53.220Z,25.70
2019-04-05T20:53:22.388Z,24.17
2019-04-05T20:55:51.936Z,23.97
2019-04-05T20:58:21.118Z,26.07
2019-04-05T21:00:50.298Z,25.00
2019-04-05T21:03:20.156Z,27.70
2019-04-05T21:05:49.322Z,25.30
2019-04-05T21:08:18.613Z,27.80
2019-04-05T21:10:47.877Z,29.83
2019-04-05T21:13:17.394Z,26.63
2019-04-05T21:15:46.581Z,24.67
2019-04-05T21:18:16.516Z,27.77
2019-04-05T21:20:46.195Z,24.20
2019-04-05T21:23:15.929Z,24.90
2019-04-05T21:25:45.186Z,27.80
2019-04-05T21:28:14.915Z,24.47
2019-04-05T21:30:44.200Z,28.50
2019-04-05T21:33:13.781Z,32.50
2019-04-05T21:35:45.868Z,39.97
2019-04-05T21:38:15.451Z,38.20
2019-04-05T21:40:45.145Z,40.80
2019-04-05T21:43:14.812Z,39.97
2019-04-05T21:45:44.114Z,46.97
2019-04-05T21:48:13.823Z,46.80
2019-04-05T21:50:43.563Z,47.97
2019-04-05T21:53:12.954Z,49.87
2019-04-05T21:55:42.389Z,51.97
2019-04-05T21:58:11.776Z,54.30
2019-04-05T22:00:45.974Z,49.90
2019-04-05T22:03:15.271Z,50.90
2019-04-05T22:05:45.280Z,55.47
2019-04-05T22:08:14.669Z,54.73
2019-04-05T22:10:44.006Z,54.80
2019-04-05T22:13:13.742Z,55.27
2019-04-05T22:15:43.055Z,55.87
2019-04-05T22:18:12.723Z,54.30
2019-04-05T22:20:42.371Z,55.53
2019-04-05T22:23:11.784Z,56.10
2019-04-05T22:25:41.543Z,56.67
2019-04-05T22:28:10.967Z,64.80
2019-04-05T22:30:40.291Z,59.10
2019-04-05T22:33:09.619Z,62.00
2019-04-05T22:35:39.668Z,62.17
2019-04-05T22:38:09.074Z,59.50
2019-04-05T22:40:38.473Z,64.77
2019-04-05T22:43:07.805Z,64.03
2019-04-05T22:45:37.211Z,71.23
2019-04-05T22:48:06.546Z,67.30
2019-04-05T22:50:35.881Z,69.23
2019-04-05T22:53:05.577Z,70.43
2019-04-05T22:55:35.359Z,68.87
2019-04-05T22:58:05.487Z,72.20
2019-04-05T23:00:34.803Z,71.03
2019-04-05T23:03:04.136Z,76.63
2019-04-05T23:05:33.589Z,71.13
2019-04-05T23:08:03.331Z,71.20
2019-04-05T23:10:32.667Z,72.30
2019-04-05T23:13:02.548Z,75.97
2019-04-05T23:15:31.976Z,71.87
2019-04-05T23:18:01.303Z,74.33
2019-04-05T23:20:30.611Z,75.77
2019-04-05T23:23:00.263Z,74.30
2019-04-05T23:25:29.653Z,75.87
2019-04-05T23:27:58.974Z,75.77
2019-04-05T23:30:29.209Z,82.10
2019-04-05T23:32:58.691Z,84.43
2019-04-05T23:35:28.112Z,86.67
2019-04-05T23:37:57.778Z,91.57
2019-04-05T23:40:27.106Z,81.43
2019-04-05T23:42:56.784Z,80.77
2019-04-05T23:45:26.187Z,89.37
2019-04-05T23:47:55.557Z,93.60
2019-04-05T23:50:24.906Z,86.63
2019-04-05T23:52:54.209Z,89.13
2019-04-05T23:55:32.742Z,88.57
2019-04-05T23:57:54.571Z,84.43
